This is the latest recevied weather packets stored in our database for station/object IU7URP-13. If no packets are shown the sender has not sent any weather packets the latest 10 day(s).
| Time | Temp. | Humidity | Pressure | Rain* | Wind** | Luminosity | Snow |
|---|---|---|---|---|---|---|---|
| 1777904556 | 24.44° C | 38% | 1019.6 hPa | - | - | - | - |
| 1777903354 | 23.33° C | 41% | 1019.6 hPa | - | - | - | - |
| 1777902152 | 24.44° C | 40% | 1019.7 hPa | - | - | - | - |
| 1777900951 | 24.44° C | 42% | 1019.8 hPa | - | - | - | - |
| 1777899749 | 24.44° C | 50% | 1019.9 hPa | - | - | - | - |
| 1777898548 | 25° C | 52% | 1020.1 hPa | - | - | - | - |
| 1777897314 | 24.44° C | 78% | 1020.2 hPa | - | - | - | - |
| 1777896859 | 25° C | 61% | 1020.2 hPa | - | - | - | - |
| 1777895722 | 24.44° C | 53% | 1020.2 hPa | - | - | - | - |
| 1777894521 | 23.89° C | 60% | 1020.4 hPa | - | - | - | - |
| 1777894110 | 23.89° C | 58% | 1020.4 hPa | - | - | - | - |
| 1777892908 | 24.44° C | 58% | 1020.6 hPa | - | - | - | - |
| 1777892861 | 23.33° C | 62% | 1020.6 hPa | - | - | - | - |
| 1777891658 | 22.78° C | 65% | 1020.7 hPa | - | - | - | - |
| 1777890456 | 23.33° C | 61% | 1020.9 hPa | - | - | - | - |
| 1777889254 | 22.78° C | 69% | 1021 hPa | - | - | - | - |
| 1777888848 | 23.89° C | 42% | 1021 hPa | - | - | - | - |
| 1777887646 | 23.33° C | 50% | 1021.3 hPa | - | - | - | - |
| 1777886445 | 24.44° C | 46% | 1021.4 hPa | - | - | - | - |
| 1777885244 | 24.44° C | 45% | 1021.6 hPa | - | - | - | - |
| 1777882815 | 22.78° C | 58% | 1021.7 hPa | - | - | - | - |
| 1777881607 | 24.44° C | 54% | 1021.7 hPa | - | - | - | - |
| 1777880790 | 24.44° C | 65% | 1021.8 hPa | - | - | - | - |
| 1777880406 | 25.56° C | 52% | 1021.8 hPa | - | - | - | - |
| 1777879205 | 26.11° C | 53% | 1021.6 hPa | - | - | - | - |
* Rain since midnight (hover to see other rain measurements)
** Current wind speed in m/s (hover to see current wind gust speed)